Karlsruhe, Germany

4:53 AM CEST on July 29, 2015 (GMT +0200)
Karlsruhe | | Change Station
CLOSE
Current Station
Personal Weather Station
Location: Karlsruhe, Baden-Wuerttemberg
Elevation: 374 ft
Nearby Weather Stations

Elev 374 ft 49.01 °N, 8.36 °E | Updated 52 minutes ago

Mostly Cloudy
Mostly Cloudy
57.2 °F
Feels Like 57.2 °F
N
0.0
Wind Variable Wind from SSW
Gusts 1.0 mph

Today
High -- | Low -- °F
--% Chance of Precip.
Yesterday
High -- | Low -- °F
Precip. -- in
5:54 AM 9:10 PM
Waxing Gibbous, 93% visible
Pressure 29.86 in
Visibility 6.2 miles
Clouds Mostly Cloudy 6500 ft
Dew Point 53 °F
Humidity 86%
Rainfall 0.02 in
Snow Depth Not available.
UV 0.0 out of 12
Pollen Not available.
Air Quality Not available.
Flu Activity Not available.
METAR ETAR 290158Z AUTO 20005KT 9999 BKN065 13/10 A2986 RMK AO2 SLP110 T01310103 $

More Conditions Fewer Conditions

Pressure 29.86 in
Visibility 6.2 miles
Clouds Mostly Cloudy 6500 ft
Dew Point 53 °F
Humidity 86%
Rainfall 0.02 in
Snow Depth Not available.
UV 0.0 out of 12
Pollen Not available.
Air Quality Not available.
Flu Activity Not available.
METAR ETAR 290158Z AUTO 20005KT 9999 BKN065 13/10 A2986 RMK AO2 SLP110 T01310103 $

More Conditions Fewer Conditions

10-Day Weather Forecast

×

Almanac

Astronomy

Jul. 29, 2015 Rise Set
Actual Time
Civil Twilight
Nautical Twilight
Astronomical Twilight
Moon
Length of Visible Light
Length of Day
Tomorrow will be .
, % of the Moon is Illuminated

Today's Extremes

Country Highs Country Lows

Community

WunderPhotos

Upload Photos

1,842,013 photos uploaded!

WunderBlogs® & News

Nearby

Air Quality

  Air Quality AQ Index Pollutant
Not available.

Snow Depth

Station Depth Elevation

Earthquake Activity

City Distance Mag. Time & Date
Minimum magnitude displayed is 2.5.

Coastal Water Temperatures

Place Temperature

Stations

Nearby Weather Stations

Station Location Temp. Windchill Dew Point Humidity Wind Precip. Elev Updated Type